Time;durP1;ratioP1;P1;durP2;ratioP2;P2;SDS_P1;SDS_P2;PMS_P1;PMS_P2;Temp;Humidity;BMP_temperature;BMP_pressure;BME280_temperature;BME280_humidity;BME280_pressure;Samples;Min_cycle;Max_cycle;Signal;HPM_P1;HPM_P2
2023/10/29 00:00:21;;;;;;;;;;;;;;;9.10;100.00;99532.34;5002499;28;20028;-58
2023/10/29 00:02:48;;;;;;;;;;;;;;;9.10;100.00;99529.72;5002595;28;20305;-61
2023/10/29 00:05:15;;;;;;;;;;;;;;;9.10;100.00;99526.25;4997837;28;19949;-59
2023/10/29 00:07:42;;;;;;;;;;;;;;;9.10;100.00;99534.97;4991566;28;19926;-58
2023/10/29 00:10:09;;;;;;;;;;;;;;;9.07;100.00;99524.69;4997644;28;19967;-60
2023/10/29 00:12:36;;;;;;;;;;;;;;;9.07;100.00;99522.06;5000970;28;19952;-60
2023/10/29 00:15:04;;;;;;;;;;;;;;;9.08;100.00;99518.47;4999813;28;19929;-61
2023/10/29 00:17:31;;;;;;;;;;;;;;;9.08;100.00;99513.22;4998235;28;20338;-63
2023/10/29 00:19:59;;;;;;;;;;;;;;;9.07;100.00;99516.81;4997116;28;20446;-59
2023/10/29 00:22:27;;;;;;;;;;;;;;;9.07;100.00;99513.34;4988761;28;19961;-61
2023/10/29 00:24:54;;;;;;;;;;;;;;;9.07;100.00;99516.81;4994485;28;20380;-59
2023/10/29 00:27:21;;;;;;;;;;;;;;;9.07;100.00;99515.97;5005512;28;19925;-60
2023/10/29 00:29:48;;;;;;;;;;;;;;;9.05;100.00;99505.59;4989870;28;19957;-60
2023/10/29 00:32:18;;;;;;;;;;;;;;;9.03;100.00;99514.50;4995537;28;19937;-60
2023/10/29 00:34:46;;;;;;;;;;;;;;;8.99;100.00;99498.13;5005652;28;19922;-58
2023/10/29 00:37:14;;;;;;;;;;;;;;;9.00;100.00;99496.31;4975081;28;20013;-60
2023/10/29 00:39:41;;;;;;;;;;;;;;;8.99;100.00;99487.63;4994622;28;20024;-60
2023/10/29 00:42:09;;;;;;;;;;;;;;;8.98;100.00;99488.56;4993347;28;19929;-57
2023/10/29 00:44:36;;;;;;;;;;;;;;;8.98;100.00;99488.56;5004952;28;19934;-60
2023/10/29 00:47:06;;;;;;;;;;;;;;;8.96;100.00;99494.88;4992250;28;19922;-59
2023/10/29 00:49:33;;;;;;;;;;;;;;;8.95;100.00;99501.91;4980393;28;19976;-59
2023/10/29 00:52:00;;;;;;;;;;;;;;;8.95;100.00;99495.81;4998544;28;20009;-60
2023/10/29 00:54:28;;;;;;;;;;;;;;;8.93;100.00;99493.31;4995817;28;20151;-59
2023/10/29 00:56:55;;;;;;;;;;;;;;;8.92;100.00;99498.69;4977310;28;19926;-60
2023/10/29 00:59:22;;;;;;;;;;;;;;;8.91;100.00;99486.47;5000367;28;20374;-59
2023/10/29 01:01:49;;;;;;;;;;;;;;;8.91;100.00;99483.84;4999423;28;20353;-58
2023/10/29 01:04:16;;;;;;;;;;;;;;;8.90;100.00;99480.41;4991298;28;20360;-59
2023/10/29 01:06:44;;;;;;;;;;;;;;;8.90;100.00;99475.16;5001314;28;19929;-59
2023/10/29 01:09:11;;;;;;;;;;;;;;;8.88;100.00;99477.88;4996301;28;19932;-60
2023/10/29 01:11:38;;;;;;;;;;;;;;;8.87;100.00;99486.72;4995663;28;19960;-59
2023/10/29 01:14:05;;;;;;;;;;;;;;;8.87;100.00;99493.72;4997957;28;19925;-60
2023/10/29 01:16:32;;;;;;;;;;;;;;;8.86;100.00;99484.19;5001351;28;19925;-59
2023/10/29 01:18:59;;;;;;;;;;;;;;;8.84;100.00;99481.66;5003775;28;19929;-60
2023/10/29 01:21:27;;;;;;;;;;;;;;;8.84;100.00;99479.03;5004924;28;19961;-59
2023/10/29 01:23:54;;;;;;;;;;;;;;;8.85;100.00;99479.88;5001322;28;19976;-60
2023/10/29 01:26:21;;;;;;;;;;;;;;;8.85;100.00;99482.50;4997570;28;19964;-59
2023/10/29 01:28:48;;;;;;;;;;;;;;;8.84;100.00;99471.16;5002847;28;19953;-59
2023/10/29 01:31:15;;;;;;;;;;;;;;;8.87;100.00;99472.72;4993591;28;19976;-59
2023/10/29 01:33:42;;;;;;;;;;;;;;;8.87;100.00;99467.47;4987370;28;19922;-59
2023/10/29 01:36:09;;;;;;;;;;;;;;;8.86;100.00;99461.38;4998543;28;19922;-60
2023/10/29 01:38:36;;;;;;;;;;;;;;;8.89;100.00;99452.47;4996337;28;20399;-58
2023/10/29 01:41:03;;;;;;;;;;;;;;;8.88;100.00;99445.56;5000222;28;19956;-60
2023/10/29 01:43:31;;;;;;;;;;;;;;;8.86;100.00;99450.06;4985432;28;19925;-60
2023/10/29 01:45:58;;;;;;;;;;;;;;;8.87;100.00;99449.09;4996163;28;19922;-59
2023/10/29 01:48:25;;;;;;;;;;;;;;;8.87;100.00;99443.84;5001078;28;19937;-60
2023/10/29 01:50:52;;;;;;;;;;;;;;;8.88;100.00;99440.31;4985391;28;19927;-61
2023/10/29 01:53:19;;;;;;;;;;;;;;;8.89;100.00;99449.84;4990463;28;20020;-58
2023/10/29 01:55:46;;;;;;;;;;;;;;;8.88;100.00;99443.78;4992711;28;20008;-59
2023/10/29 01:58:13;;;;;;;;;;;;;;;8.91;100.00;99428.72;4998038;28;20095;-59
2023/10/29 02:00:40;;;;;;;;;;;;;;;8.89;100.00;99431.47;4997672;28;20409;-57
2023/10/29 02:03:07;;;;;;;;;;;;;;;8.88;100.00;99425.41;4996926;28;19965;-60
2023/10/29 02:05:34;;;;;;;;;;;;;;;8.90;100.00;99422.66;4993020;28;19929;-59
2023/10/29 02:08:02;;;;;;;;;;;;;;;8.91;100.00;99423.47;4973655;28;19925;-59
2023/10/29 02:10:29;;;;;;;;;;;;;;;8.92;100.00;99425.19;4991563;28;19921;-62
2023/10/29 02:12:57;;;;;;;;;;;;;;;8.92;100.00;99415.53;5001863;28;19922;-57
2023/10/29 02:15:24;;;;;;;;;;;;;;;8.94;100.00;99410.16;4993479;28;20004;-59
2023/10/29 02:17:51;;;;;;;;;;;;;;;8.94;100.00;99413.63;5000008;28;19949;-60
2023/10/29 02:20:18;;;;;;;;;;;;;;;8.96;100.00;99406.50;5007518;28;20220;-58
2023/10/29 02:22:45;;;;;;;;;;;;;;;8.98;100.00;99414.25;4999442;28;20234;-61
2023/10/29 02:25:12;;;;;;;;;;;;;;;8.99;100.00;99427.25;4998499;28;19925;-58
2023/10/29 02:27:39;;;;;;;;;;;;;;;9.00;100.00;99426.28;4989697;28;19921;-59
2023/10/29 02:30:07;;;;;;;;;;;;;;;9.02;100.00;99429.66;5006001;28;20207;-62
2023/10/29 02:32:34;;;;;;;;;;;;;;;9.05;100.00;99426.81;4995350;28;20071;-61
2023/10/29 02:35:01;;;;;;;;;;;;;;;9.03;100.00;99428.72;5002990;28;20048;-59
2023/10/29 02:37:28;;;;;;;;;;;;;;;9.05;100.00;99426.81;4995718;28;19926;-60
2023/10/29 02:39:55;;;;;;;;;;;;;;;9.05;100.00;99428.59;4975534;28;19965;-60
2023/10/29 02:42:22;;;;;;;;;;;;;;;9.07;100.00;99431.97;4992295;28;20356;-59
2023/10/29 02:44:49;;;;;;;;;;;;;;;9.08;100.00;99436.25;4999610;28;19925;-62
2023/10/29 02:47:16;;;;;;;;;;;;;;;9.09;100.00;99432.66;4989820;28;19921;-58
2023/10/29 02:49:43;;;;;;;;;;;;;;;9.10;100.00;99424.72;4998510;28;19928;-60
2023/10/29 02:52:10;;;;;;;;;;;;;;;9.12;100.00;99425.41;4973249;28;20411;-59
2023/10/29 02:54:38;;;;;;;;;;;;;;;9.16;100.00;99427.84;4994783;28;19976;-58
2023/10/29 02:57:05;;;;;;;;;;;;;;;9.15;100.00;99434.03;4992936;28;19921;-61
2023/10/29 02:59:32;;;;;;;;;;;;;;;9.11;100.00;99430.78;5006943;28;20394;-61
2023/10/29 03:01:59;;;;;;;;;;;;;;;9.12;100.00;99435.91;4991694;28;19944;-60
2023/10/29 03:04:26;;;;;;;;;;;;;;;9.13;100.00;99444.63;4987068;28;19922;-61
2023/10/29 03:06:53;;;;;;;;;;;;;;;9.16;100.00;99436.53;4996155;28;19922;-62
2023/10/29 03:09:20;;;;;;;;;;;;;;;9.18;100.00;99436.41;4988939;28;19988;-59
2023/10/29 03:11:48;;;;;;;;;;;;;;;9.18;100.00;99446.94;4992276;28;20015;-59
2023/10/29 03:14:15;;;;;;;;;;;;;;;9.17;100.00;99440.84;4991451;28;19968;-60
2023/10/29 03:16:42;;;;;;;;;;;;;;;9.15;100.00;99450.63;4994623;28;19957;-57
2023/10/29 03:19:09;;;;;;;;;;;;;;;9.16;100.00;99449.69;4995034;28;19952;-60
2023/10/29 03:21:36;;;;;;;;;;;;;;;9.19;100.00;99448.63;4994397;28;20399;-57
2023/10/29 03:24:03;;;;;;;;;;;;;;;9.16;100.00;99443.59;4990008;28;20351;-61
2023/10/29 03:26:30;;;;;;;;;;;;;;;9.18;100.00;99437.25;4986702;28;20072;-57
2023/10/29 03:28:57;;;;;;;;;;;;;;;9.20;100.00;99439.78;4996558;28;19935;-59
2023/10/29 03:31:24;;;;;;;;;;;;;;;9.19;100.00;99433.72;4990461;28;19979;-60
2023/10/29 03:33:52;;;;;;;;;;;;;;;9.20;100.00;99429.28;4978084;28;19945;-60
2023/10/29 03:36:19;;;;;;;;;;;;;;;9.19;100.00;99417.13;4991980;28;19956;-58
2023/10/29 03:38:46;;;;;;;;;;;;;;;9.19;100.00;99411.88;5002610;28;19930;-61
2023/10/29 03:41:20;;;;;;;;;;;;;;;9.19;100.00;99412.69;4994913;28;19921;-61
2023/10/29 03:43:48;;;;;;;;;;;;;;;9.21;100.00;99409.97;4993761;28;20015;-59
2023/10/29 03:46:15;;;;;;;;;;;;;;;9.20;100.00;99398.63;4978973;28;20373;-60
2023/10/29 03:48:45;;;;;;;;;;;;;;;9.23;100.00;99394.91;4999459;28;19996;-61
2023/10/29 03:51:12;;;;;;;;;;;;;;;9.22;100.00;99394.06;5003325;28;20287;-61
2023/10/29 03:53:40;;;;;;;;;;;;;;;9.23;100.00;99384.41;4997104;28;19922;-61
2023/10/29 03:56:07;;;;;;;;;;;;;;;9.24;100.00;99380.84;4990303;28;20288;-59
2023/10/29 03:58:34;;;;;;;;;;;;;;;9.25;100.00;99379.91;4994021;28;19957;-62
2023/10/29 04:01:01;;;;;;;;;;;;;;;9.24;100.00;99372.97;4993124;28;20291;-59
2023/10/29 04:03:28;;;;;;;;;;;;;;;9.23;100.00;99366.03;4992759;28;19960;-59
2023/10/29 04:05:56;;;;;;;;;;;;;;;9.25;100.00;99372.03;4993503;28;19926;-61
2023/10/29 04:08:23;;;;;;;;;;;;;;;9.25;100.00;99372.03;4995602;28;19964;-58
2023/10/29 04:10:50;;;;;;;;;;;;;;;9.27;100.00;99372.72;4993462;28;19999;-59
2023/10/29 04:13:17;;;;;;;;;;;;;;;9.26;100.00;99371.06;4990361;28;20020;-57
2023/10/29 04:15:44;;;;;;;;;;;;;;;9.27;100.00;99370.09;4973252;28;19922;-60
2023/10/29 04:18:11;;;;;;;;;;;;;;;9.30;100.00;99364.63;4996528;28;19921;-60
2023/10/29 04:20:39;;;;;;;;;;;;;;;9.29;100.00;99361.19;4997877;28;19996;-61
2023/10/29 04:23:06;;;;;;;;;;;;;;;9.31;100.00;99363.69;4998532;28;19967;-61
2023/10/29 04:25:33;;;;;;;;;;;;;;;9.33;100.00;99365.25;4991819;28;19958;-61
2023/10/29 04:28:00;;;;;;;;;;;;;;;9.36;100.00;99366.81;4994497;28;19953;-60
2023/10/29 04:30:27;;;;;;;;;;;;;;;9.37;100.00;99368.50;4992356;28;20364;-60
2023/10/29 04:32:54;;;;;;;;;;;;;;;9.38;100.00;99354.41;4994732;28;19988;-60
2023/10/29 04:35:21;;;;;;;;;;;;;;;9.38;100.00;99349.16;4999122;28;20001;-60
2023/10/29 04:37:48;;;;;;;;;;;;;;;9.37;100.00;99356.19;4995474;28;19933;-60
2023/10/29 04:40:16;;;;;;;;;;;;;;;9.39;100.00;99337.69;4996115;28;19940;-59
2023/10/29 04:42:43;;;;;;;;;;;;;;;9.40;100.00;99339.34;4973890;28;19929;-60
2023/10/29 04:45:11;;;;;;;;;;;;;;;9.39;100.00;99335.06;4978587;28;20292;-59
2023/10/29 04:47:38;;;;;;;;;;;;;;;9.39;100.00;99329.81;4991914;28;19997;-60
2023/10/29 04:50:05;;;;;;;;;;;;;;;9.40;100.00;99320.97;4991997;28;20411;-60
2023/10/29 04:52:33;;;;;;;;;;;;;;;9.39;100.00;99314.88;4993607;28;20492;-61
2023/10/29 04:55:01;;;;;;;;;;;;;;;9.42;100.00;99318.25;4991869;28;20423;-59
2023/10/29 04:57:29;;;;;;;;;;;;;;;9.43;100.00;99309.41;4990564;28;20035;-61
2023/10/29 04:59:56;;;;;;;;;;;;;;;9.44;100.00;99303.19;4988261;28;20257;-60
2023/10/29 05:02:23;;;;;;;;;;;;;;;9.43;100.00;99285.78;4992100;28;19997;-60
2023/10/29 05:04:51;;;;;;;;;;;;;;;9.41;100.00;99280.66;4990972;28;19976;-59
2023/10/29 05:07:18;;;;;;;;;;;;;;;9.43;100.00;99283.97;4991720;28;19926;-59
2023/10/29 05:09:45;;;;;;;;;;;;;;;9.43;100.00;99291.03;4994548;28;19934;-59
2023/10/29 05:12:12;;;;;;;;;;;;;;;9.43;100.00;99285.78;4989531;28;20364;-61
2023/10/29 05:14:39;;;;;;;;;;;;;;;9.41;100.00;99291.16;4994041;28;20592;-61
2023/10/29 05:17:06;;;;;;;;;;;;;;;9.44;100.00;99263.81;4978386;28;19925;-61
2023/10/29 05:19:33;;;;;;;;;;;;;;;9.46;100.00;99273.25;4983966;28;20029;-60
2023/10/29 05:22:01;;;;;;;;;;;;;;;9.49;100.00;99265.13;4993460;28;19925;-59
2023/10/29 05:24:28;;;;;;;;;;;;;;;9.51;100.00;99270.28;4995192;28;20020;-59
2023/10/29 05:26:55;;;;;;;;;;;;;;;9.51;100.00;99268.47;4994502;28;19930;-60
2023/10/29 05:29:22;;;;;;;;;;;;;;;9.51;100.00;99268.47;4991735;28;19922;-58
2023/10/29 05:31:50;;;;;;;;;;;;;;;9.52;100.00;99266.69;4992956;28;19925;-60
2023/10/29 05:34:17;;;;;;;;;;;;;;;9.53;100.00;99276.22;5000478;28;19926;-62
2023/10/29 05:36:44;;;;;;;;;;;;;;;9.56;100.00;99268.13;4990426;28;20129;-57
2023/10/29 05:39:11;;;;;;;;;;;;;;;9.58;100.00;99256.53;4983921;28;20342;-58
2023/10/29 05:41:38;;;;;;;;;;;;;;;9.59;100.00;99250.34;4985625;28;19926;-59
2023/10/29 05:44:05;;;;;;;;;;;;;;;9.64;100.00;99248.19;4992533;28;19952;-56
2023/10/29 05:46:32;;;;;;;;;;;;;;;9.63;100.00;99243.88;4985763;28;19961;-60
2023/10/29 05:49:00;;;;;;;;;;;;;;;9.66;100.00;99252.50;5000741;28;20359;-59
2023/10/29 05:51:27;;;;;;;;;;;;;;;9.69;100.00;99245.22;4985124;28;19984;-58
2023/10/29 05:53:55;;;;;;;;;;;;;;;9.72;100.00;99231.00;4996033;28;19921;-57
2023/10/29 05:56:22;;;;;;;;;;;;;;;9.75;100.00;99241.28;4990852;28;19956;-54
2023/10/29 05:58:50;;;;;;;;;;;;;;;9.77;100.00;99241.97;5010160;23;19922;-70
2023/10/29 06:01:17;;;;;;;;;;;;;;;9.77;100.00;99244.59;5011371;28;19929;-70
2023/10/29 06:03:44;;;;;;;;;;;;;;;9.80;100.00;99250.47;4996562;28;20477;-71
2023/10/29 06:06:12;;;;;;;;;;;;;;;9.82;100.00;99253.00;4977019;28;20349;-70
2023/10/29 06:08:39;;;;;;;;;;;;;;;9.83;100.00;99262.53;5009971;28;19928;-70
2023/10/29 06:11:06;;;;;;;;;;;;;;;9.85;100.00;99268.50;4975971;28;19936;-70
2023/10/29 06:13:34;;;;;;;;;;;;;;;9.84;100.00;99267.66;4987006;28;19929;-70
2023/10/29 06:16:06;;;;;;;;;;;;;;;9.87;100.00;99253.47;4964447;28;20023;-72
2023/10/29 06:18:33;;;;;;;;;;;;;;;9.88;100.00;99255.13;4994379;28;19922;-72
2023/10/29 06:21:01;;;;;;;;;;;;;;;9.91;100.00;99252.28;4978267;28;19963;-70
2023/10/29 06:23:29;;;;;;;;;;;;;;;9.95;100.00;99251.09;4991290;28;19968;-69
2023/10/29 06:25:56;;;;;;;;;;;;;;;9.98;100.00;99256.06;5009800;28;19921;-68
2023/10/29 06:28:23;;;;;;;;;;;;;;;9.98;100.00;99245.56;5006791;28;19929;-69
2023/10/29 06:30:50;;;;;;;;;;;;;;;10.02;100.00;99249.63;4999622;28;19921;-70
2023/10/29 06:33:18;;;;;;;;;;;;;;;10.02;100.00;99248.78;4992071;28;20007;-70
2023/10/29 06:35:45;;;;;;;;;;;;;;;10.07;100.00;99249.25;4976549;28;20012;-70
2023/10/29 06:38:14;;;;;;;;;;;;;;;10.09;100.00;99258.72;4994708;28;20402;-68
2023/10/29 06:40:41;;;;;;;;;;;;;;;10.11;100.00;99266.47;5003296;28;20283;-65
2023/10/29 06:43:09;;;;;;;;;;;;;;;10.12;100.00;99260.25;4976776;28;20039;-70
2023/10/29 06:45:39;;;;;;;;;;;;;;;10.12;100.00;99261.09;4993529;28;19955;-72
2023/10/29 06:48:06;;;;;;;;;;;;;;;10.14;100.00;99264.44;4992060;28;20406;-72
2023/10/29 06:50:34;;;;;;;;;;;;;;;10.17;100.00;99258.09;4974642;28;19921;-70
2023/10/29 06:53:02;;;;;;;;;;;;;;;10.19;100.00;99255.38;4992232;28;19987;-66
2023/10/29 06:55:29;;;;;;;;;;;;;;;10.25;100.00;99265.41;4974712;28;19949;-72
2023/10/29 06:57:56;;;;;;;;;;;;;;;10.26;100.00;99267.09;4974879;28;19925;-71
2023/10/29 07:00:24;;;;;;;;;;;;;;;10.23;100.00;99269.94;4989877;28;20002;-70
2023/10/29 07:02:51;;;;;;;;;;;;;;;10.27;100.00;99272.25;4961944;28;20019;-70
2023/10/29 07:05:20;;;;;;;;;;;;;;;10.29;100.00;99272.13;5005339;28;20387;-70
2023/10/29 07:07:48;;;;;;;;;;;;;;;10.31;100.00;99264.91;4992983;28;20383;-69
2023/10/29 07:10:15;;;;;;;;;;;;;;;10.30;100.00;99261.47;4992440;28;19971;-70
2023/10/29 07:12:42;;;;;;;;;;;;;;;10.36;100.00;99261.00;4962031;28;19929;-71
2023/10/29 07:15:10;;;;;;;;;;;;;;;10.32;100.00;99251.66;4997769;28;19977;-69
2023/10/29 07:17:37;;;;;;;;;;;;;;;10.36;100.00;99250.47;4974821;28;19921;-71
2023/10/29 07:20:05;;;;;;;;;;;;;;;10.37;100.00;99249.50;4978731;28;20356;-70
2023/10/29 07:22:32;;;;;;;;;;;;;;;10.38;100.00;99252.97;5007476;28;20016;-70
2023/10/29 07:24:59;;;;;;;;;;;;;;;10.41;100.00;99241.38;4994693;28;19975;-70
2023/10/29 07:27:26;;;;;;;;;;;;;;;10.42;100.00;99238.59;4956161;28;20404;-71
2023/10/29 07:29:54;;;;;;;;;;;;;;;10.43;100.00;99235.00;5009243;28;19926;-68
2023/10/29 07:32:21;;;;;;;;;;;;;;;10.43;100.00;99232.38;4981259;28;19979;-70
2023/10/29 07:34:48;;;;;;;;;;;;;;;10.42;100.00;99243.88;4977419;28;20450;-70
2023/10/29 07:37:16;;;;;;;;;;;;;;;10.38;100.00;99230.13;5014655;28;19937;-69
2023/10/29 07:39:43;;;;;;;;;;;;;;;10.36;100.00;99242.56;4993207;28;19921;-70
2023/10/29 07:42:10;;;;;;;;;;;;;;;10.41;100.00;99244.00;4992266;28;20280;-72
2023/10/29 07:44:37;;;;;;;;;;;;;;;10.39;100.00;99247.56;5005360;28;19933;-70
2023/10/29 07:47:08;;;;;;;;;;;;;;;10.36;100.00;99236.47;4976996;28;19936;-70
2023/10/29 07:49:37;;;;;;;;;;;;;;;10.38;100.00;99247.69;4977416;28;19921;-70
2023/10/29 07:52:05;;;;;;;;;;;;;;;10.38;100.00;99238.00;4977015;28;20020;-70
2023/10/29 07:54:32;;;;;;;;;;;;;;;10.42;100.00;99259.66;4995533;28;19972;-70
2023/10/29 07:57:00;;;;;;;;;;;;;;;10.42;100.00;99243.03;5007236;28;20440;-70
2023/10/29 07:59:27;;;;;;;;;;;;;;;10.40;100.00;99253.66;5008121;28;20461;-70
2023/10/29 08:01:54;;;;;;;;;;;;;;;10.39;100.00;99246.75;4997485;28;19921;-70
2023/10/29 08:04:22;;;;;;;;;;;;;;;10.40;100.00;99256.28;4991955;28;20505;-70
2023/10/29 08:06:49;;;;;;;;;;;;;;;10.44;100.00;99268.25;4978020;28;19960;-69
2023/10/29 08:09:16;;;;;;;;;;;;;;;10.41;100.00;99241.38;5015161;28;19964;-71
2023/10/29 08:11:44;;;;;;;;;;;;;;;10.43;100.00;99249.97;4992974;28;20519;-69
2023/10/29 08:14:12;;;;;;;;;;;;;;;10.41;100.00;99223.78;4994948;28;19936;-70
2023/10/29 08:16:41;;;;;;;;;;;;;;;10.45;100.00;99213.84;4981968;28;19925;-70
2023/10/29 08:19:08;;;;;;;;;;;;;;;10.42;100.00;99212.31;4999491;28;19921;-69
2023/10/29 08:21:36;;;;;;;;;;;;;;;10.45;100.00;99206.81;5011288;28;20388;-67
2023/10/29 08:24:04;;;;;;;;;;;;;;;10.47;100.00;99211.94;4995987;28;20011;-68
2023/10/29 08:26:32;;;;;;;;;;;;;;;10.46;100.00;99216.34;5006439;28;19922;-67
2023/10/29 08:28:59;;;;;;;;;;;;;;;10.53;100.00;99212.25;4979070;28;19947;-68
2023/10/29 08:31:27;;;;;;;;;;;;;;;10.54;100.00;99223.63;4979232;28;19984;-69
2023/10/29 08:33:54;;;;;;;;;;;;;;;10.60;100.00;99223.13;4979653;28;19965;-71
2023/10/29 08:36:22;;;;;;;;;;;;;;;10.64;100.00;99219.28;4976328;28;20360;-69
2023/10/29 08:38:49;;;;;;;;;;;;;;;10.64;100.00;99220.13;4962347;28;19925;-70
2023/10/29 08:41:17;;;;;;;;;;;;;;;10.71;100.00;99214.34;5010879;28;19957;-69
2023/10/29 08:43:45;;;;;;;;;;;;;;;10.74;100.00;99214.09;5010432;28;20375;-70
2023/10/29 08:46:12;;;;;;;;;;;;;;;10.76;100.00;99210.41;4995359;28;19988;-72
2023/10/29 08:48:40;;;;;;;;;;;;;;;10.82;100.00;99209.06;5014778;28;20415;-68
2023/10/29 08:51:08;;;;;;;;;;;;;;;10.84;100.00;99215.00;4996153;28;19925;-70
2023/10/29 08:53:36;;;;;;;;;;;;;;;10.85;100.00;99208.78;4989084;28;20261;-67
2023/10/29 08:56:04;;;;;;;;;;;;;;;10.90;100.00;99227.69;4992523;28;19928;-70
2023/10/29 08:58:31;;;;;;;;;;;;;;;10.92;100.00;99231.03;4998641;28;19921;-67
2023/10/29 09:00:58;;;;;;;;;;;;;;;11.00;100.00;99225.97;4975541;28;19933;-70
2023/10/29 09:03:26;;;;;;;;;;;;;;;11.08;100.00;99217.44;4994352;28;19925;-70
2023/10/29 09:05:59;;;;;;;;;;;;;;;11.16;100.00;99215.81;4994701;28;19922;-70
2023/10/29 09:08:27;;;;;;;;;;;;;;;11.25;100.00;99221.25;4992094;28;20335;-70
2023/10/29 09:10:54;;;;;;;;;;;;;;;11.30;100.00;99230.47;5008874;28;19926;-70
2023/10/29 09:13:23;;;;;;;;;;;;;;;11.40;100.00;99230.53;4995093;28;19921;-71
2023/10/29 09:15:51;;;;;;;;;;;;;;;11.37;100.00;99217.59;5009717;28;19921;-68
2023/10/29 09:18:18;;;;;;;;;;;;;;;11.44;100.00;99213.50;5008599;28;19999;-71
2023/10/29 09:20:49;;;;;;;;;;;;;;;11.55;100.00;99213.41;5006773;28;19925;-70
2023/10/29 09:23:17;;;;;;;;;;;;;;;11.59;100.00;99212.19;4995340;28;19933;-69
2023/10/29 09:25:45;;;;;;;;;;;;;;;11.58;100.00;99210.50;5006078;28;19921;-70
2023/10/29 09:28:14;;;;;;;;;;;;;;;11.59;100.00;99212.19;5011767;28;19929;-69
2023/10/29 09:30:41;;;;;;;;;;;;;;;11.64;100.00;99215.25;4989988;28;19925;-70
2023/10/29 09:33:09;;;;;;;;;;;;;;;11.65;100.00;99224.81;4995308;28;19929;-71
2023/10/29 09:35:37;;;;;;;;;;;;;;;11.72;100.00;99227.78;4986654;28;19984;-67
2023/10/29 09:38:05;;;;;;;;;;;;;;;11.69;100.00;99217.50;4978226;28;19920;-72
2023/10/29 09:40:32;;;;;;;;;;;;;;;11.78;100.00;99211.44;4994471;28;19975;-72
2023/10/29 09:43:04;;;;;;;;;;;;;;;11.82;100.00;99212.00;5006196;28;19921;-70
2023/10/29 09:45:35;;;;;;;;;;;;;;;11.87;100.00;99220.38;4989705;28;19960;-70
2023/10/29 09:48:03;;;;;;;;;;;;;;;11.95;100.00;99227.63;5012786;28;19921;-71
2023/10/29 09:50:34;;;;;;;;;;;;;;;11.89;100.00;99218.47;5009049;28;19922;-71
2023/10/29 09:53:03;;;;;;;;;;;;;;;11.91;100.00;99227.06;5007120;28;20051;-70
2023/10/29 09:55:30;;;;;;;;;;;;;;;11.85;100.00;99219.69;4975898;28;20004;-70
2023/10/29 09:57:58;;;;;;;;;;;;;;;11.91;100.00;99235.78;4990035;28;20511;-70
2023/10/29 10:00:25;;;;;;;;;;;;;;;11.94;100.00;99237.34;5004517;28;20008;-70
2023/10/29 10:02:55;;;;;;;;;;;;;;;11.97;100.00;99229.16;4969200;28;19929;-71
2023/10/29 10:05:24;;;;;;;;;;;;;;;11.98;100.00;99230.84;5003269;28;20024;-71
2023/10/29 10:07:52;;;;;;;;;;;;;;;11.90;100.00;99212.22;5004898;28;20529;-71
2023/10/29 10:10:20;;;;;;;;;;;;;;;11.94;100.00;99224.16;4972135;28;19926;-71
2023/10/29 10:12:49;;;;;;;;;;;;;;;11.97;100.00;99244.13;4987876;28;20318;-70
2023/10/29 10:15:16;;;;;;;;;;;;;;;11.99;100.00;99242.22;4969320;28;20678;-71
2023/10/29 10:17:45;;;;;;;;;;;;;;;11.96;100.00;99240.69;4987705;28;20407;-71
2023/10/29 10:20:19;;;;;;;;;;;;;;;11.91;100.00;99221.78;4971981;28;20010;-70
2023/10/29 10:22:46;;;;;;;;;;;;;;;11.96;100.00;99243.31;5010965;28;19921;-69
2023/10/29 10:25:17;;;;;;;;;;;;;;;12.02;100.00;99242.81;4992401;28;20398;-69
2023/10/29 10:27:48;;;;;;;;;;;;;;;12.09;100.00;99246.56;4990959;28;19921;-69
2023/10/29 10:30:37;;;;;;;;;;;;;;;12.07;100.00;99259.06;4995507;28;19922;-70
2023/10/29 10:33:09;;;;;;;;;;;;;;;12.03;100.00;99259.47;5006638;28;20329;-70
2023/10/29 10:35:39;;;;;;;;;;;;;;;12.06;100.00;99254.72;5004720;28;19929;-66
2023/10/29 10:38:06;;;;;;;;;;;;;;;12.10;100.00;99242.09;5009360;28;20304;-70
2023/10/29 10:40:34;;;;;;;;;;;;;;;12.17;100.00;99216.88;4990978;28;19930;-70
2023/10/29 10:43:01;;;;;;;;;;;;;;;12.16;100.00;99233.69;4971680;28;19925;-71
2023/10/29 10:45:29;;;;;;;;;;;;;;;12.24;100.00;99240.91;4973724;28;19983;-69
2023/10/29 10:47:57;;;;;;;;;;;;;;;12.25;100.00;99238.16;5012649;28;20017;-70
2023/10/29 10:50:25;;;;;;;;;;;;;;;12.32;100.00;99235.78;5007874;28;19957;-68
2023/10/29 10:52:52;;;;;;;;;;;;;;;12.37;100.00;99223.00;4983697;28;19922;-70
2023/10/29 10:55:19;;;;;;;;;;;;;;;12.40;100.00;99222.75;4963761;28;19925;-69
2023/10/29 10:58:07;;;;;;;;;;;;;;;12.39;100.00;99221.91;4980561;28;19936;-70
2023/10/29 11:00:34;;;;;;;;;;;;;;;12.53;100.00;99255.00;4977033;28;20565;-70
2023/10/29 11:03:02;;;;;;;;;;;;;;;12.60;100.00;99258.75;4974242;28;19921;-70
2023/10/29 11:05:40;;;;;;;;;;;;;;;12.67;100.00;99259.06;5010439;28;19929;-69
2023/10/29 11:08:08;;;;;;;;;;;;;;;12.75;100.00;99251.28;4983653;28;19929;-70
2023/10/29 11:10:35;;;;;;;;;;;;;;;12.95;100.00;99241.56;5013002;28;19929;-70
2023/10/29 11:13:22;;;;;;;;;;;;;;;13.18;100.00;99235.00;4998592;28;19936;-69
2023/10/29 11:15:49;;;;;;;;;;;;;;;13.39;100.00;99231.41;4976740;28;19973;-71
2023/10/29 11:18:28;;;;;;;;;;;;;;;13.57;100.00;99224.38;4997649;28;20357;-71
2023/10/29 11:20:56;;;;;;;;;;;;;;;13.73;100.00;99207.91;4997470;28;20335;-70
2023/10/29 11:23:27;;;;;;;;;;;;;;;13.83;100.00;99195.50;5004902;28;19928;-70
2023/10/29 11:26:13;;;;;;;;;;;;;;;13.86;100.00;99197.00;4980866;28;19953;-70
2023/10/29 11:28:41;;;;;;;;;;;;;;;13.80;100.00;99205.53;5004530;28;19929;-70
2023/10/29 11:31:12;;;;;;;;;;;;;;;13.67;100.00;99214.59;5006081;28;20014;-69
2023/10/29 11:33:40;;;;;;;;;;;;;;;13.73;100.00;99212.34;5012074;28;20271;-70
2023/10/29 11:36:26;;;;;;;;;;;;;;;13.79;100.00;99227.66;4996285;28;19925;-70
2023/10/29 11:38:54;;;;;;;;;;;;;;;13.77;100.00;99222.50;5009824;28;19932;-72
2023/10/29 11:41:31;;;;;;;;;;;;;;;13.83;100.00;99213.19;5015517;28;20433;-70
2023/10/29 11:44:17;;;;;;;;;;;;;;;13.96;100.00;99223.41;4993710;28;19921;-70
2023/10/29 11:47:01;;;;;;;;;;;;;;;13.99;100.00;99220.47;5005806;28;19921;-69
2023/10/29 11:49:49;;;;;;;;;;;;;;;14.02;100.00;99221.03;5016104;28;19926;-70
2023/10/29 11:52:16;;;;;;;;;;;;;;;14.11;100.00;99211.38;4997539;28;20019;-70
2023/10/29 11:54:43;;;;;;;;;;;;;;;14.07;99.05;99220.59;5006145;28;20530;-66
2023/10/29 11:57:10;;;;;;;;;;;;;;;14.01;99.75;99221.19;4979466;28;20368;-70
2023/10/29 11:59:54;;;;;;;;;;;;;;;14.11;99.40;99221.97;4961799;28;19925;-69
2023/10/29 12:02:22;;;;;;;;;;;;;;;14.21;98.26;99214.78;4992964;28;19980;-68
2023/10/29 12:04:49;;;;;;;;;;;;;;;14.40;97.82;99208.53;4998208;28;19966;-71
2023/10/29 12:07:25;;;;;;;;;;;;;;;14.48;97.51;99227.19;5015064;28;20402;-69
2023/10/29 12:09:59;;;;;;;;;;;;;;;14.42;94.93;99230.41;4997050;28;19992;-69
2023/10/29 12:12:26;;;;;;;;;;;;;;;14.48;95.33;99216.59;4990328;28;20395;-69
2023/10/29 12:14:53;;;;;;;;;;;;;;;14.84;94.24;99209.50;4997618;28;19932;-71
2023/10/29 12:17:21;;;;;;;;;;;;;;;15.56;89.86;99219.97;5008701;28;19925;-69
2023/10/29 12:19:48;;;;;;;;;;;;;;;16.56;87.35;99229.06;4988431;28;19979;-70
2023/10/29 12:22:19;;;;;;;;;;;;;;;16.74;82.49;99219.16;5006951;28;19922;-69
2023/10/29 12:24:46;;;;;;;;;;;;;;;16.73;81.82;99227.28;5000312;28;20443;-70
2023/10/29 12:27:14;;;;;;;;;;;;;;;16.68;81.53;99223.28;4980709;28;19999;-69
2023/10/29 12:29:42;;;;;;;;;;;;;;;17.19;79.91;99220.50;4991815;28;19928;-70
2023/10/29 12:32:20;;;;;;;;;;;;;;;16.83;78.31;99206.69;4993345;28;20438;-69
2023/10/29 12:34:56;;;;;;;;;;;;;;;16.83;79.98;99207.53;4992669;28;20367;-69
2023/10/29 12:37:30;;;;;;;;;;;;;;;16.52;80.62;99198.50;4997686;28;19926;-69
2023/10/29 12:39:59;;;;;;;;;;;;;;;16.23;80.73;99198.94;5014670;28;19952;-64
2023/10/29 12:42:45;;;;;;;;;;;;;;;15.88;82.48;99208.75;5012794;28;20007;-70
2023/10/29 12:45:21;;;;;;;;;;;;;;;15.65;84.42;99219.06;4989855;28;19921;-66
2023/10/29 12:47:50;;;;;;;;;;;;;;;15.85;85.35;99217.88;5008754;28;19925;-69